Droylsden, United Kingdom
Current Conditions -  °F | °C
As of 7:50 AM on Saturday 20 Dec 2014 (Local Time) from EGCC Reporting Station
Rain Showers Rain Showers  
Wind Chill: 37°   Ceiling: 2800
Heat Index: 45°   Visibility: 6mi
Dew Point: 39°   Wind: 18mph
Humidity: 81%   Direction: 280°W
Pressure: 30.12"   Gusts: NA
Location:  53.48°N, 2.15°W
Report Text: EGCC 200750Z 28016KT 9999 VCSH FEW022 BKN028 07/04 Q1020 NOSIG
Loading
Personal Weather Stations






























Interactive Weather Map New forecast layout! Learn more

10-Day Weather Forecast

Advertisements
Track Severe Weather on mobile